createdAt,value
2022-09-06T00:02:36.752Z,2.47
2022-09-06T00:05:38.418Z,1.90
2022-09-06T00:08:40.014Z,2.42
2022-09-06T00:11:41.367Z,1.70
2022-09-06T00:14:42.718Z,1.60
2022-09-06T00:17:45.111Z,1.92
2022-09-06T00:20:46.438Z,1.90
2022-09-06T00:23:47.876Z,1.88
2022-09-06T00:26:49.166Z,2.35
2022-09-06T00:29:50.466Z,1.83
2022-09-06T00:32:53.023Z,1.83
2022-09-06T00:35:58.351Z,2.40
2022-09-06T00:38:59.765Z,2.20
2022-09-06T00:42:01.098Z,2.42
2022-09-06T00:45:02.762Z,2.50
2022-09-06T00:48:04.831Z,1.83
2022-09-06T00:51:07.613Z,1.90
2022-09-06T00:54:09.241Z,2.47
2022-09-06T00:57:10.821Z,2.33
2022-09-06T01:00:12.670Z,1.90
2022-09-06T01:03:14.240Z,1.58
2022-09-06T01:06:15.571Z,2.35
2022-09-06T01:09:32.162Z,2.22
2022-09-06T01:12:45.581Z,1.75
2022-09-06T01:15:52.830Z,1.88
2022-09-06T01:19:03.549Z,1.92
2022-09-06T01:25:28.874Z,2.10
2022-09-06T01:28:32.705Z,1.90
2022-09-06T01:31:37.435Z,1.73
2022-09-06T01:34:42.138Z,1.83
2022-09-06T01:37:43.536Z,1.75
2022-09-06T01:40:44.895Z,2.15
2022-09-06T01:43:48.622Z,2.80
2022-09-06T01:46:49.885Z,2.00
2022-09-06T01:50:00.410Z,2.70
2022-09-06T01:53:04.902Z,2.60
2022-09-06T01:56:24.735Z,2.10
2022-09-06T01:59:32.150Z,2.00
2022-09-06T02:02:45.688Z,2.20
2022-09-06T02:05:51.848Z,1.38
2022-09-06T02:09:07.501Z,2.00
2022-09-06T02:12:12.223Z,1.60
2022-09-06T02:15:19.255Z,1.33
2022-09-06T02:18:29.623Z,1.50
2022-09-06T02:21:32.792Z,2.20
2022-09-06T02:24:37.090Z,1.95
2022-09-06T02:27:38.456Z,2.08
2022-09-06T02:30:42.505Z,1.70
2022-09-06T02:33:45.503Z,2.00
2022-09-06T02:36:47.157Z,1.80
2022-09-06T02:39:48.608Z,2.13
2022-09-06T02:42:49.938Z,1.90
2022-09-06T02:45:51.370Z,1.80
2022-09-06T02:48:52.734Z,2.30
2022-09-06T02:51:54.031Z,2.25
2022-09-06T02:54:55.315Z,2.03
2022-09-06T02:57:56.634Z,1.90
2022-09-06T03:00:58.070Z,1.85
2022-09-06T03:03:59.408Z,1.63
2022-09-06T03:07:00.733Z,1.60
2022-09-06T03:10:02.459Z,2.05
2022-09-06T03:13:03.827Z,2.65
2022-09-06T03:16:05.174Z,2.63
2022-09-06T03:19:06.453Z,2.22
2022-09-06T03:22:07.759Z,2.20
2022-09-06T03:25:09.201Z,2.50
2022-09-06T03:28:10.725Z,2.03
2022-09-06T03:31:12.072Z,1.95
2022-09-06T03:34:13.404Z,1.95
2022-09-06T03:37:15.826Z,2.25
2022-09-06T03:40:17.256Z,2.70
2022-09-06T03:43:18.989Z,2.00
2022-09-06T03:46:20.331Z,2.22
2022-09-06T03:49:21.721Z,2.25
2022-09-06T03:52:23.018Z,2.42
2022-09-06T03:55:24.310Z,2.97
2022-09-06T03:58:29.613Z,3.30
2022-09-06T04:01:31.033Z,2.63
2022-09-06T04:04:32.446Z,2.70
2022-09-06T04:07:33.792Z,2.33
2022-09-06T04:10:35.137Z,2.28
2022-09-06T04:13:36.450Z,2.30
2022-09-06T04:16:37.769Z,2.72
2022-09-06T04:19:39.196Z,2.38
2022-09-06T04:22:40.541Z,2.30
2022-09-06T04:25:45.327Z,2.70
2022-09-06T04:28:46.743Z,2.78
2022-09-06T04:31:48.177Z,2.90
2022-09-06T04:34:49.541Z,2.85
2022-09-06T04:37:50.839Z,2.92
2022-09-06T04:40:52.223Z,3.80
2022-09-06T04:43:53.494Z,2.63
2022-09-06T04:47:15.288Z,2.75
2022-09-06T04:50:16.587Z,3.42
2022-09-06T04:53:17.881Z,2.60
2022-09-06T04:56:20.019Z,2.60
2022-09-06T04:59:21.354Z,2.55
2022-09-06T05:02:22.723Z,2.85
2022-09-06T05:05:24.013Z,2.55
2022-09-06T05:08:25.584Z,3.10
2022-09-06T05:11:27.357Z,4.15
2022-09-06T05:14:28.995Z,3.60
2022-09-06T05:17:30.534Z,2.53
2022-09-06T05:20:31.990Z,2.65
2022-09-06T05:23:33.325Z,2.60
2022-09-06T05:26:34.726Z,2.97
2022-09-06T05:29:36.046Z,4.25
2022-09-06T05:32:37.412Z,3.38
2022-09-06T05:35:38.723Z,3.60
2022-09-06T05:38:39.999Z,3.13
2022-09-06T05:41:41.333Z,2.97
2022-09-06T05:44:42.611Z,3.38
2022-09-06T05:47:44.072Z,3.45
2022-09-06T05:50:45.350Z,3.20
2022-09-06T05:53:46.655Z,3.38
2022-09-06T05:56:47.965Z,3.25
2022-09-06T05:59:49.250Z,2.78
2022-09-06T06:02:50.977Z,2.80
2022-09-06T06:05:52.288Z,2.92
2022-09-06T06:08:53.892Z,3.22
2022-09-06T06:11:55.262Z,2.90
2022-09-06T06:14:56.589Z,2.85
2022-09-06T06:17:57.958Z,2.95
2022-09-06T06:21:14.471Z,2.90
2022-09-06T06:24:15.772Z,2.78
2022-09-06T06:27:17.131Z,3.30
2022-09-06T06:30:18.751Z,3.05
2022-09-06T06:33:20.394Z,3.25
2022-09-06T06:36:22.806Z,3.30
2022-09-06T06:39:24.139Z,3.72
2022-09-06T06:42:25.446Z,3.30
2022-09-06T06:45:26.779Z,3.05
2022-09-06T06:48:28.747Z,2.95
2022-09-06T06:51:33.910Z,3.20
2022-09-06T06:54:37.309Z,3.60
2022-09-06T06:57:38.643Z,3.08
2022-09-06T07:00:41.186Z,3.53
2022-09-06T07:03:42.727Z,3.15
2022-09-06T07:13:31.263Z,3.60
2022-09-06T07:16:32.609Z,3.47
2022-09-06T07:26:23.909Z,2.90
2022-09-06T07:29:25.608Z,2.95
2022-09-06T07:32:26.895Z,3.53
2022-09-06T07:35:28.219Z,2.88
2022-09-06T07:38:30.131Z,2.75
2022-09-06T07:41:31.508Z,3.30
2022-09-06T07:44:32.879Z,3.00
2022-09-06T07:50:58.937Z,3.30
2022-09-06T07:54:34.670Z,3.15
2022-09-06T07:57:23.090Z,2.55
2022-09-06T08:00:25.182Z,3.05
2022-09-06T08:03:26.504Z,3.40
2022-09-06T08:06:29.093Z,2.60
2022-09-06T08:09:30.399Z,3.15
2022-09-06T08:12:31.689Z,2.88
2022-09-06T08:15:33.599Z,2.85
2022-09-06T08:18:36.305Z,2.88
2022-09-06T08:21:37.709Z,2.85
2022-09-06T08:24:39.104Z,2.88
2022-09-06T08:27:40.396Z,2.80
2022-09-06T08:30:41.689Z,2.90
2022-09-06T08:33:43.657Z,2.47
2022-09-06T08:36:45.433Z,2.13
2022-09-06T08:39:46.763Z,2.55
2022-09-06T08:42:48.425Z,2.13
2022-09-06T08:45:55.966Z,2.80
2022-09-06T08:48:57.328Z,2.30
2022-09-06T08:52:05.113Z,2.28
2022-09-06T08:55:21.468Z,2.22
2022-09-06T08:58:25.906Z,2.25
2022-09-06T09:01:30.001Z,2.13
2022-09-06T09:04:31.943Z,2.03
2022-09-06T09:07:42.851Z,2.35
2022-09-06T09:10:48.179Z,2.08
2022-09-06T09:13:49.478Z,2.22
2022-09-06T09:16:51.560Z,5.45
2022-09-06T09:19:52.877Z,4.80
2022-09-06T09:22:54.186Z,3.00
2022-09-06T09:25:56.823Z,2.15
2022-09-06T09:29:06.178Z,2.45
2022-09-06T09:35:16.626Z,2.20
2022-09-06T09:38:23.129Z,2.33
2022-09-06T09:41:32.021Z,2.00
2022-09-06T09:44:33.476Z,2.05
2022-09-06T09:47:34.774Z,1.92
2022-09-06T09:50:36.160Z,2.05
2022-09-06T09:53:49.203Z,2.70
2022-09-06T09:56:53.815Z,2.83
2022-09-06T09:59:57.345Z,2.13
2022-09-06T10:02:58.924Z,2.22
2022-09-06T10:06:03.791Z,2.08
2022-09-06T10:09:20.875Z,2.45
2022-09-06T10:12:48.211Z,1.98
2022-09-06T10:15:50.524Z,2.45
2022-09-06T10:18:52.759Z,2.40
2022-09-06T10:21:56.455Z,2.45
2022-09-06T10:25:00.907Z,2.85
2022-09-06T10:28:12.265Z,1.90
2022-09-06T10:31:32.727Z,2.05
2022-09-06T10:35:05.081Z,2.00
2022-09-06T10:38:25.129Z,2.22
2022-09-06T10:41:33.212Z,2.10
2022-09-06T10:44:40.998Z,2.83
2022-09-06T10:47:51.168Z,1.90
2022-09-06T10:50:54.213Z,2.00
2022-09-06T10:54:14.821Z,2.17
2022-09-06T11:00:47.312Z,2.40
2022-09-06T11:07:00.261Z,1.40
2022-09-06T11:10:13.776Z,1.90
2022-09-06T11:13:17.151Z,1.77
2022-09-06T11:16:27.918Z,1.63
2022-09-06T11:19:32.939Z,1.70
2022-09-06T11:22:56.225Z,1.65
2022-09-06T11:26:08.207Z,2.10
2022-09-06T11:29:16.495Z,1.83
2022-09-06T11:32:36.291Z,1.80
2022-09-06T11:35:37.734Z,1.73
2022-09-06T11:38:39.123Z,1.90
2022-09-06T11:41:41.570Z,2.20
2022-09-06T11:44:54.052Z,1.83
2022-09-06T11:47:55.998Z,1.80
2022-09-06T11:50:57.270Z,1.67
2022-09-06T11:53:58.862Z,1.58
2022-09-06T11:57:02.409Z,1.60
2022-09-06T12:00:04.581Z,1.40
2022-09-06T12:06:42.796Z,1.40
2022-09-06T12:09:44.129Z,1.63
2022-09-06T12:12:50.739Z,1.70
2022-09-06T12:15:53.650Z,1.55
2022-09-06T12:18:55.784Z,1.70
2022-09-06T12:21:57.060Z,1.40
2022-09-06T12:25:05.792Z,1.63
2022-09-06T12:28:23.527Z,1.85
2022-09-06T12:31:27.787Z,1.20
2022-09-06T12:34:31.123Z,1.20
2022-09-06T12:37:34.175Z,1.30
2022-09-06T12:40:38.204Z,1.50
2022-09-06T12:43:39.501Z,1.70
2022-09-06T12:46:44.862Z,1.50
2022-09-06T12:49:46.362Z,1.48
2022-09-06T12:52:51.992Z,1.40
2022-09-06T12:56:06.609Z,1.50
2022-09-06T12:59:14.143Z,1.60
2022-09-06T13:02:17.878Z,1.33
2022-09-06T13:05:19.334Z,1.40
2022-09-06T13:08:28.437Z,2.00
2022-09-06T13:11:30.647Z,1.75
2022-09-06T13:14:33.350Z,1.50
2022-09-06T13:17:35.514Z,1.48
2022-09-06T13:20:36.866Z,1.77
2022-09-06T13:23:42.165Z,1.90
2022-09-06T13:26:43.453Z,1.83
2022-09-06T13:29:54.296Z,1.90
2022-09-06T13:32:55.621Z,2.40
2022-09-06T13:36:08.393Z,2.20
2022-09-06T13:39:12.325Z,1.95
2022-09-06T13:42:30.234Z,2.75
2022-09-06T13:45:31.709Z,2.10
2022-09-06T13:48:33.238Z,1.88
2022-09-06T13:51:35.369Z,1.92
2022-09-06T13:54:36.674Z,1.90
2022-09-06T13:57:39.171Z,2.00
2022-09-06T14:03:42.723Z,1.98
2022-09-06T14:06:44.019Z,1.98
2022-09-06T14:09:45.697Z,1.85
2022-09-06T14:12:47.066Z,2.42
2022-09-06T14:15:49.179Z,2.45
2022-09-06T14:18:51.960Z,2.17
2022-09-06T14:24:55.183Z,2.40
2022-09-06T14:27:56.551Z,2.45
2022-09-06T14:30:57.932Z,1.75
2022-09-06T14:33:59.601Z,2.20
2022-09-06T14:37:01.045Z,2.10
2022-09-06T14:40:02.679Z,1.52
2022-09-06T14:43:04.371Z,2.35
2022-09-06T14:46:06.764Z,1.58
2022-09-06T14:49:10.202Z,2.58
2022-09-06T14:52:11.639Z,1.50
2022-09-06T14:55:13.057Z,1.73
2022-09-06T14:58:15.484Z,1.75
2022-09-06T15:01:18.705Z,1.92
2022-09-06T15:04:20.147Z,1.50
2022-09-06T15:07:21.974Z,2.00
2022-09-06T15:10:23.361Z,1.80
2022-09-06T15:13:26.873Z,1.40
2022-09-06T15:16:28.901Z,1.70
2022-09-06T15:19:30.955Z,1.23
2022-09-06T15:22:32.255Z,1.90
2022-09-06T15:25:33.541Z,1.60
2022-09-06T15:28:39.055Z,1.33
2022-09-06T15:31:41.822Z,1.45
2022-09-06T15:37:45.493Z,1.27
2022-09-06T15:40:46.801Z,1.52
2022-09-06T15:43:49.233Z,1.48
2022-09-06T15:46:51.584Z,2.00
2022-09-06T15:49:52.978Z,1.92
2022-09-06T15:52:54.299Z,1.30
2022-09-06T15:55:59.104Z,1.20
2022-09-06T15:59:00.457Z,1.40
2022-09-06T16:02:01.839Z,1.40
2022-09-06T16:05:03.264Z,1.40
2022-09-06T16:08:04.609Z,1.30
2022-09-06T16:11:10.568Z,1.50
2022-09-06T16:14:13.153Z,1.65
2022-09-06T16:17:14.544Z,1.50
2022-09-06T16:20:15.925Z,1.48
2022-09-06T16:23:17.409Z,1.90
2022-09-06T16:26:21.525Z,1.40
2022-09-06T16:29:23.165Z,1.40
2022-09-06T16:32:24.678Z,1.40
2022-09-06T16:35:26.074Z,1.40
2022-09-06T16:38:33.369Z,1.52
2022-09-06T16:41:40.397Z,1.80
2022-09-06T16:44:41.816Z,1.90
2022-09-06T16:47:43.171Z,1.60
2022-09-06T16:50:44.472Z,1.50
2022-09-06T16:53:46.578Z,2.10
2022-09-06T16:56:48.041Z,1.60
2022-09-06T16:59:49.390Z,1.55
2022-09-06T17:02:51.127Z,1.80
2022-09-06T17:05:52.818Z,2.05
2022-09-06T17:08:55.687Z,1.63
2022-09-06T17:11:57.317Z,1.55
2022-09-06T17:14:58.718Z,1.63
2022-09-06T17:18:00.094Z,1.80
2022-09-06T17:21:02.030Z,1.63
2022-09-06T17:24:04.567Z,1.80
2022-09-06T17:27:06.267Z,1.80
2022-09-06T17:30:08.050Z,1.65
2022-09-06T17:33:09.850Z,1.65
2022-09-06T17:36:12.639Z,1.70
2022-09-06T17:39:17.461Z,1.55
2022-09-06T17:42:18.827Z,1.95
2022-09-06T17:45:22.148Z,1.90
2022-09-06T17:48:24.960Z,1.38
2022-09-06T17:51:26.333Z,1.38
2022-09-06T17:54:28.264Z,1.50
2022-09-06T17:57:29.625Z,1.40
2022-09-06T18:00:31.076Z,1.30
2022-09-06T18:03:33.062Z,1.60
2022-09-06T18:06:36.104Z,1.40
2022-09-06T18:09:37.463Z,1.73
2022-09-06T18:12:38.963Z,1.55
2022-09-06T18:15:40.566Z,1.73
2022-09-06T18:18:42.084Z,1.40
2022-09-06T18:21:44.045Z,1.20
2022-09-06T18:24:45.407Z,1.50
2022-09-06T18:27:47.298Z,1.52
2022-09-06T18:30:48.788Z,1.33
2022-09-06T18:33:50.411Z,1.35
2022-09-06T18:36:52.402Z,1.60
2022-09-06T18:39:54.865Z,1.42
2022-09-06T18:42:56.215Z,1.58
2022-09-06T18:46:01.692Z,1.42
2022-09-06T18:49:03.182Z,1.38
2022-09-06T18:52:05.251Z,1.48
2022-09-06T18:55:06.719Z,1.70
2022-09-06T18:58:08.460Z,1.42
2022-09-06T19:01:11.392Z,1.40
2022-09-06T19:04:13.121Z,1.42
2022-09-06T19:07:14.421Z,1.45
2022-09-06T19:10:15.798Z,1.70
2022-09-06T19:13:17.149Z,1.42
2022-09-06T19:16:19.249Z,1.38
2022-09-06T19:19:21.800Z,1.40
2022-09-06T19:22:23.127Z,1.45
2022-09-06T19:25:24.707Z,1.40
2022-09-06T19:28:27.146Z,1.50
2022-09-06T19:31:29.968Z,1.40
2022-09-06T19:34:31.383Z,1.95
2022-09-06T19:37:32.751Z,1.38
2022-09-06T19:40:34.083Z,1.48
2022-09-06T19:43:35.695Z,1.50
2022-09-06T19:46:37.811Z,1.40
2022-09-06T19:49:39.692Z,1.50
2022-09-06T19:52:41.118Z,1.55
2022-09-06T19:55:42.498Z,1.30
2022-09-06T19:58:44.448Z,1.50
2022-09-06T20:01:46.645Z,1.50
2022-09-06T20:04:48.136Z,1.40
2022-09-06T20:07:49.677Z,1.63
2022-09-06T20:10:51.941Z,1.60
2022-09-06T20:13:53.664Z,1.75
2022-09-06T20:16:55.055Z,1.60
2022-09-06T20:19:56.979Z,1.65
2022-09-06T20:22:58.277Z,1.60
2022-09-06T20:26:07.626Z,2.20
2022-09-06T20:29:09.073Z,1.58
2022-09-06T20:32:10.723Z,1.40
2022-09-06T20:35:12.047Z,1.48
2022-09-06T20:38:13.462Z,1.70
2022-09-06T20:41:16.324Z,2.00
2022-09-06T20:44:17.618Z,1.50
2022-09-06T20:47:19.499Z,1.73
2022-09-06T20:50:20.859Z,1.48
2022-09-06T20:53:22.315Z,1.33
2022-09-06T20:56:27.981Z,1.27
2022-09-06T20:59:29.309Z,1.40
2022-09-06T21:02:30.694Z,1.60
2022-09-06T21:05:32.091Z,1.65
2022-09-06T21:08:35.452Z,1.50
2022-09-06T21:11:38.460Z,1.40
2022-09-06T21:14:39.932Z,1.50
2022-09-06T21:17:41.258Z,1.42
2022-09-06T21:20:42.576Z,1.60
2022-09-06T21:23:43.967Z,1.95
2022-09-06T21:26:45.335Z,2.20
2022-09-06T21:29:46.647Z,1.40
2022-09-06T21:32:47.946Z,1.58
2022-09-06T21:35:49.313Z,2.00
2022-09-06T21:38:53.263Z,1.33
2022-09-06T21:41:54.578Z,1.50
2022-09-06T21:44:55.886Z,1.60
2022-09-06T21:47:57.204Z,1.77
2022-09-06T21:50:58.497Z,1.50
2022-09-06T21:54:03.310Z,1.50
2022-09-06T21:57:05.161Z,1.90
2022-09-06T22:00:06.869Z,1.58
2022-09-06T22:03:08.389Z,1.55
2022-09-06T22:06:10.717Z,1.85
2022-09-06T22:09:12.843Z,1.88
2022-09-06T22:12:14.147Z,1.80
2022-09-06T22:15:15.932Z,1.52
2022-09-06T22:18:17.252Z,1.52
2022-09-06T22:21:20.136Z,1.77
2022-09-06T22:24:21.535Z,1.70
2022-09-06T22:27:23.388Z,1.73
2022-09-06T22:30:36.933Z,1.50
2022-09-06T22:33:38.589Z,1.95
2022-09-06T22:36:39.976Z,1.83
2022-09-06T22:39:42.160Z,2.40
2022-09-06T22:42:43.532Z,1.75
2022-09-06T22:45:49.849Z,1.73
2022-09-06T22:48:53.284Z,2.22
2022-09-06T22:51:54.618Z,1.98
2022-09-06T22:54:55.935Z,2.15
2022-09-06T22:57:57.276Z,1.88
2022-09-06T23:01:05.143Z,1.83
2022-09-06T23:04:07.252Z,1.83
2022-09-06T23:07:08.642Z,2.08
2022-09-06T23:10:11.843Z,1.88
2022-09-06T23:13:13.292Z,1.88
2022-09-06T23:16:17.269Z,2.10
2022-09-06T23:19:18.673Z,1.75
2022-09-06T23:22:19.978Z,2.08
2022-09-06T23:25:21.286Z,1.92
2022-09-06T23:28:22.794Z,1.73
2022-09-06T23:31:25.457Z,2.00
2022-09-06T23:34:26.848Z,1.92
2022-09-06T23:37:28.159Z,1.73
2022-09-06T23:40:29.476Z,2.10
2022-09-06T23:43:31.069Z,2.00
2022-09-06T23:46:32.732Z,2.38
2022-09-06T23:49:34.137Z,2.05
2022-09-06T23:52:35.522Z,1.92
2022-09-06T23:55:36.868Z,1.90
2022-09-06T23:58:38.550Z,1.90
